Time;durP1;ratioP1;P1;durP2;ratioP2;P2;SDS_P1;SDS_P2;PMS_P1;PMS_P2;Temp;Humidity;BMP_temperature;BMP_pressure;BME280_temperature;BME280_humidity;BME280_pressure;Samples;Min_cycle;Max_cycle;Signal;HPM_P1;HPM_P2
2021/09/23 00:00:15;;;;;;;17.75;12.93;;;12.60;99.90;;;;;;5096681;28;20207;-63
2021/09/23 00:05:18;;;;;;;18.63;14.02;;;12.50;99.90;;;;;;5096869;28;20234;-62
2021/09/23 00:07:45;;;;;;;17.92;12.68;;;12.50;99.90;;;;;;5096651;28;20167;-63
2021/09/23 00:10:15;;;;;;;16.42;12.82;;;12.50;99.90;;;;;;5096193;28;20566;-62
2021/09/23 00:12:41;;;;;;;20.00;13.85;;;12.50;99.90;;;;;;5078529;28;20652;-64
2021/09/23 00:15:08;;;;;;;20.45;14.68;;;12.50;99.90;;;;;;5096480;28;20199;-62
2021/09/23 00:17:33;;;;;;;18.15;13.02;;;12.50;99.90;;;;;;5096244;28;20307;-63
2021/09/23 00:19:59;;;;;;;21.93;14.20;;;12.40;99.90;;;;;;5078137;28;20716;-63
2021/09/23 00:22:25;;;;;;;16.92;12.95;;;12.40;99.90;;;;;;5096765;28;20219;-63
2021/09/23 00:24:50;;;;;;;15.27;11.57;;;12.30;99.90;;;;;;5096185;28;20562;-63
2021/09/23 00:27:16;;;;;;;18.93;12.57;;;12.30;99.90;;;;;;5096681;28;20529;-62
2021/09/23 00:29:42;;;;;;;23.23;13.83;;;12.20;99.90;;;;;;5077917;28;20688;-62
2021/09/23 00:32:08;;;;;;;20.47;14.60;;;12.20;99.90;;;;;;5096474;28;20875;-62
2021/09/23 00:34:33;;;;;;;17.30;11.90;;;12.20;99.90;;;;;;5077856;28;20193;-62
2021/09/23 00:36:59;;;;;;;17.87;12.93;;;12.20;99.90;;;;;;5096349;28;20183;-63
2021/09/23 00:39:25;;;;;;;17.90;12.70;;;12.10;99.90;;;;;;5077732;28;20665;-62
2021/09/23 00:41:51;;;;;;;19.20;13.60;;;12.10;99.90;;;;;;5096198;28;20200;-62
2021/09/23 00:44:22;;;;;;;17.80;13.15;;;12.00;99.90;;;;;;5095784;28;20193;-63
2021/09/23 00:46:50;;;;;;;18.80;12.90;;;12.00;99.90;;;;;;5096048;28;20214;-63
2021/09/23 00:49:16;;;;;;;17.33;13.02;;;12.00;99.90;;;;;;5077539;28;20224;-62
2021/09/23 00:51:45;;;;;;;17.48;12.90;;;11.90;99.90;;;;;;5096002;28;20188;-62
2021/09/23 00:54:11;;;;;;;18.25;12.10;;;11.90;99.90;;;;;;5095583;28;20192;-63
2021/09/23 00:56:37;;;;;;;19.87;13.77;;;11.90;99.90;;;;;;5095879;28;20186;-62
2021/09/23 00:59:04;;;;;;;17.73;13.65;;;11.90;99.90;;;;;;5095479;28;20200;-62
2021/09/23 01:01:30;;;;;;;17.92;13.40;;;11.80;99.90;;;;;;5095746;28;20215;-63
2021/09/23 01:03:55;;;;;;;20.40;13.37;;;11.80;99.90;;;;;;5095440;28;20204;-63
2021/09/23 01:06:21;;;;;;;20.27;13.50;;;11.80;99.90;;;;;;5095668;28;20534;-62
2021/09/23 01:08:58;;;;;;;17.27;13.50;;;11.80;99.90;;;;;;5095383;28;20548;-62
2021/09/23 01:11:26;;;;;;;18.85;13.40;;;11.80;99.90;;;;;;5077252;28;20424;-63
2021/09/23 01:13:52;;;;;;;17.95;12.63;;;11.80;99.90;;;;;;5094904;28;20196;-62
2021/09/23 01:16:18;;;;;;;18.93;13.00;;;11.80;99.90;;;;;;5095083;28;20696;-62
2021/09/23 01:18:44;;;;;;;18.80;12.60;;;11.70;99.90;;;;;;5076985;28;20196;-63
2021/09/23 01:21:09;;;;;;;20.23;14.13;;;11.70;99.90;;;;;;5094660;28;20764;-62
2021/09/23 01:23:43;;;;;;;18.30;12.53;;;11.70;99.90;;;;;;5076733;28;20441;-63
2021/09/23 01:26:11;;;;;;;17.75;13.82;;;11.70;99.90;;;;;;5095329;28;20263;-63
2021/09/23 01:28:40;;;;;;;15.50;12.73;;;11.60;99.90;;;;;;5095078;28;20197;-62
2021/09/23 01:31:06;;;;;;;16.90;12.57;;;11.60;99.90;;;;;;5095171;28;20173;-62
2021/09/23 01:33:34;;;;;;;24.15;13.43;;;11.60;99.90;;;;;;5094906;28;20681;-63
2021/09/23 01:36:00;;;;;;;19.40;14.13;;;11.50;99.90;;;;;;5076597;28;20188;-62
2021/09/23 01:38:27;;;;;;;17.43;13.03;;;11.50;99.90;;;;;;5076637;28;20188;-62
2021/09/23 01:40:53;;;;;;;15.48;12.38;;;11.50;99.90;;;;;;5094778;28;20695;-62
2021/09/23 01:43:20;;;;;;;19.13;12.80;;;11.40;99.90;;;;;;5094815;28;20649;-62
2021/09/23 01:45:46;;;;;;;21.20;13.57;;;11.40;99.90;;;;;;5094734;28;20640;-64
2021/09/23 01:48:12;;;;;;;17.50;12.10;;;11.40;99.90;;;;;;5094575;28;20180;-62
2021/09/23 01:50:38;;;;;;;18.20;12.77;;;11.40;99.90;;;;;;5094645;28;20640;-63
2021/09/23 01:53:04;;;;;;;19.75;13.55;;;11.40;99.90;;;;;;5094568;28;20230;-62
2021/09/23 01:55:29;;;;;;;20.20;13.90;;;11.40;99.90;;;;;;5094431;28;20196;-63
2021/09/23 01:57:55;;;;;;;21.40;12.83;;;11.40;99.90;;;;;;5076315;28;20177;-63
2021/09/23 02:00:21;;;;;;;15.37;11.47;;;11.40;99.90;;;;;;5076283;28;20200;-62
2021/09/23 02:02:48;;;;;;;16.93;12.00;;;11.50;99.90;;;;;;5094373;28;20277;-63
2021/09/23 02:05:14;;;;;;;17.15;13.02;;;11.50;99.90;;;;;;5094228;28;20192;-63
2021/09/23 02:07:40;;;;;;;17.10;12.40;;;11.50;99.90;;;;;;5094259;28;20180;-62
2021/09/23 02:10:05;;;;;;;19.40;12.77;;;11.50;99.90;;;;;;5094417;28;20196;-62
2021/09/23 02:12:31;;;;;;;18.60;13.57;;;11.50;99.90;;;;;;5094740;28;20212;-62
2021/09/23 02:14:58;;;;;;;17.20;12.70;;;11.50;99.90;;;;;;5094140;28;20196;-62
2021/09/23 02:17:24;;;;;;;18.88;12.55;;;11.50;99.90;;;;;;5094390;28;20219;-62
2021/09/23 02:19:50;;;;;;;13.30;10.67;;;11.50;99.90;;;;;;5075887;28;20669;-63
2021/09/23 02:22:15;;;;;;;18.17;12.67;;;11.50;99.90;;;;;;5076116;28;20473;-63
2021/09/23 02:24:41;;;;;;;18.20;12.27;;;11.50;99.90;;;;;;5094060;28;20313;-62
2021/09/23 02:27:07;;;;;;;16.60;12.17;;;11.50;99.90;;;;;;5093911;28;20233;-62
2021/09/23 02:29:34;;;;;;;16.88;10.95;;;11.50;99.90;;;;;;5093935;28;20231;-62
2021/09/23 02:32:01;;;;;;;17.15;11.88;;;11.60;99.90;;;;;;5075917;28;20180;-63
2021/09/23 02:34:27;;;;;;;16.40;11.73;;;11.60;99.90;;;;;;5093802;28;20214;-62
2021/09/23 02:36:52;;;;;;;14.97;12.37;;;11.60;99.90;;;;;;5094138;28;20172;-62
2021/09/23 02:39:18;;;;;;;15.03;11.60;;;11.70;99.90;;;;;;5093858;28;20211;-62
2021/09/23 02:41:43;;;;;;;16.57;11.23;;;11.70;99.90;;;;;;5094077;28;20200;-62
2021/09/23 02:44:09;;;;;;;14.20;10.90;;;11.70;99.90;;;;;;5093847;28;20196;-63
2021/09/23 02:46:34;;;;;;;16.10;11.10;;;11.80;99.90;;;;;;5094059;28;20247;-62
2021/09/23 02:49:00;;;;;;;14.33;11.53;;;11.80;99.90;;;;;;5093751;28;20204;-62
2021/09/23 02:51:26;;;;;;;15.13;11.33;;;11.80;99.90;;;;;;5075758;28;20191;-63
2021/09/23 02:53:51;;;;;;;15.73;11.93;;;11.90;99.90;;;;;;5093685;28;20280;-62
2021/09/23 02:56:17;;;;;;;17.00;10.90;;;11.90;99.90;;;;;;5093952;28;20685;-62
2021/09/23 02:58:44;;;;;;;13.93;10.80;;;11.90;99.90;;;;;;5093669;28;20713;-62
2021/09/23 03:01:10;;;;;;;17.92;12.00;;;11.90;99.90;;;;;;5075571;28;20200;-62
2021/09/23 03:03:36;;;;;;;15.80;11.60;;;12.00;99.90;;;;;;5093734;28;20257;-64
2021/09/23 03:06:01;;;;;;;17.63;12.87;;;12.00;99.90;;;;;;5093740;28;20226;-63
2021/09/23 03:08:27;;;;;;;21.93;11.07;;;12.00;99.90;;;;;;5093623;28;20181;-62
2021/09/23 03:10:52;;;;;;;14.57;10.83;;;12.10;99.90;;;;;;5093719;28;20183;-63
2021/09/23 03:13:18;;;;;;;12.23;10.00;;;12.10;99.90;;;;;;5093485;28;20204;-63
2021/09/23 03:15:44;;;;;;;12.97;10.40;;;12.20;99.90;;;;;;5075253;28;20180;-64
2021/09/23 03:18:09;;;;;;;12.63;10.23;;;12.20;99.90;;;;;;5093547;28;20177;-63
2021/09/23 03:20:35;;;;;;;13.40;10.00;;;12.30;99.90;;;;;;5075310;28;20554;-63
2021/09/23 03:23:01;;;;;;;19.10;9.90;;;12.30;99.90;;;;;;5093412;28;20259;-63
2021/09/23 03:25:28;;;;;;;10.77;9.20;;;12.40;99.90;;;;;;5093368;28;20271;-63
2021/09/23 03:27:54;;;;;;;14.07;10.10;;;12.40;99.90;;;;;;5093385;28;20173;-63
2021/09/23 03:30:20;;;;;;;14.27;10.30;;;12.50;99.90;;;;;;5093020;28;20256;-64
2021/09/23 03:32:46;;;;;;;12.83;9.23;;;12.50;99.90;;;;;;5093299;28;20208;-64
2021/09/23 03:35:12;;;;;;;16.70;10.57;;;12.50;99.90;;;;;;5075174;28;20922;-63
2021/09/23 03:37:38;;;;;;;12.27;9.20;;;12.60;99.90;;;;;;5093833;28;20305;-63
2021/09/23 03:40:05;;;;;;;12.67;9.50;;;12.60;99.90;;;;;;5093216;28;20419;-63
2021/09/23 03:42:31;;;;;;;14.52;10.13;;;12.60;99.90;;;;;;5093742;28;20476;-63
2021/09/23 03:44:56;;;;;;;11.53;9.43;;;12.60;99.90;;;;;;5094184;28;20257;-63
2021/09/23 03:47:22;;;;;;;13.50;9.47;;;12.60;99.90;;;;;;5096925;28;20173;-64
2021/09/23 03:49:48;;;;;;;15.33;10.90;;;12.60;99.90;;;;;;5078563;28;20291;-63
2021/09/23 03:52:13;;;;;;;13.83;9.60;;;12.70;99.90;;;;;;5097374;28;20218;-63
2021/09/23 03:54:39;;;;;;;12.83;9.97;;;12.70;99.90;;;;;;5096828;28;20199;-63
2021/09/23 03:57:04;;;;;;;11.57;9.20;;;12.70;99.90;;;;;;5097199;28;20180;-64
2021/09/23 03:59:30;;;;;;;14.07;9.40;;;12.70;99.90;;;;;;5096730;28;20565;-64
2021/09/23 04:01:56;;;;;;;11.70;8.90;;;12.70;99.90;;;;;;5078391;28;20239;-63
2021/09/23 04:04:22;;;;;;;13.57;10.47;;;12.70;99.90;;;;;;5078269;28;20248;-63
2021/09/23 04:06:47;;;;;;;12.53;9.47;;;12.80;99.90;;;;;;5072261;28;20537;-63
2021/09/23 04:09:13;;;;;;;12.27;9.70;;;12.80;99.90;;;;;;5077062;28;20254;-63
2021/09/23 04:11:40;;;;;;;11.23;9.10;;;12.70;99.90;;;;;;5061974;28;20348;-64
2021/09/23 04:14:07;;;;;;;11.35;9.15;;;12.80;99.90;;;;;;5083706;28;20425;-63
2021/09/23 04:16:33;;;;;;;13.52;9.63;;;12.80;99.90;;;;;;5085133;28;20313;-63
2021/09/23 04:18:59;;;;;;;11.88;9.07;;;12.80;99.90;;;;;;5067095;28;20680;-63
2021/09/23 04:21:25;;;;;;;13.17;10.17;;;12.80;99.90;;;;;;5083777;28;20248;-63
2021/09/23 04:23:50;;;;;;;11.60;8.97;;;12.80;99.90;;;;;;5085571;28;20204;-63
2021/09/23 04:26:16;;;;;;;13.73;10.23;;;12.80;99.90;;;;;;5085671;28;20765;-63
2021/09/23 04:28:41;;;;;;;13.07;10.67;;;12.90;99.90;;;;;;5085884;28;20632;-64
2021/09/23 04:31:07;;;;;;;13.63;10.40;;;12.90;99.90;;;;;;5083611;28;20172;-64
2021/09/23 04:33:33;;;;;;;15.50;10.07;;;12.90;99.90;;;;;;5082994;28;20196;-64
2021/09/23 04:35:58;;;;;;;14.63;9.90;;;12.90;99.90;;;;;;5084833;28;20180;-63
2021/09/23 04:38:24;;;;;;;15.43;10.97;;;12.90;99.90;;;;;;5086198;28;20169;-63
2021/09/23 04:40:50;;;;;;;13.80;9.13;;;12.90;99.90;;;;;;5084360;28;20221;-63
2021/09/23 04:43:16;;;;;;;13.20;10.27;;;12.90;99.90;;;;;;5083772;28;20183;-64
2021/09/23 04:45:42;;;;;;;15.00;11.45;;;13.00;99.90;;;;;;5085964;28;20195;-63
2021/09/23 04:48:07;;;;;;;13.40;10.50;;;13.00;99.90;;;;;;5065926;28;20178;-64
2021/09/23 04:50:33;;;;;;;12.47;10.17;;;13.00;99.90;;;;;;5067443;28;20433;-63
2021/09/23 04:53:00;;;;;;;14.10;10.43;;;13.00;99.90;;;;;;5085327;28;20184;-64
2021/09/23 04:55:27;;;;;;;14.52;11.02;;;13.00;99.90;;;;;;5092322;28;20291;-63
2021/09/23 04:57:52;;;;;;;14.52;11.65;;;13.00;99.90;;;;;;5104100;28;20195;-63
2021/09/23 05:00:20;;;;;;;11.63;9.50;;;13.00;99.90;;;;;;5095388;28;20252;-63
2021/09/23 05:02:47;;;;;;;10.32;9.18;;;13.00;99.90;;;;;;5113549;28;20260;-64
2021/09/23 05:05:12;;;;;;;13.60;10.27;;;13.00;99.90;;;;;;5095049;28;20196;-64
2021/09/23 05:07:38;;;;;;;11.47;8.90;;;13.00;99.90;;;;;;5095807;28;20306;-63
2021/09/23 05:10:04;;;;;;;13.43;10.40;;;13.00;99.90;;;;;;5076347;28;20196;-63
2021/09/23 05:12:30;;;;;;;10.65;8.90;;;12.90;99.90;;;;;;5108790;28;20182;-64
2021/09/23 05:14:55;;;;;;;9.97;8.60;;;12.90;99.90;;;;;;5080004;28;20204;-63
2021/09/23 05:17:21;;;;;;;12.90;9.57;;;12.90;99.90;;;;;;5095867;28;20223;-64
2021/09/23 05:19:47;;;;;;;12.52;8.65;;;12.80;99.90;;;;;;5098222;28;20638;-63
2021/09/23 05:22:13;;;;;;;10.40;8.13;;;12.80;99.90;;;;;;5108521;28;20235;-63
2021/09/23 05:24:39;;;;;;;14.87;8.30;;;12.70;99.90;;;;;;5101566;28;20231;-63
2021/09/23 05:27:05;;;;;;;11.43;9.03;;;12.70;99.90;;;;;;5079487;28;20593;-63
2021/09/23 05:29:30;;;;;;;11.87;9.13;;;12.60;99.90;;;;;;5087101;28;20269;-63
2021/09/23 05:31:56;;;;;;;11.53;8.67;;;12.60;99.90;;;;;;5102032;28;20519;-63
2021/09/23 05:34:22;;;;;;;12.17;9.10;;;12.60;99.90;;;;;;5087795;28;20210;-63
2021/09/23 05:36:54;;;;;;;15.48;11.07;;;12.60;99.90;;;;;;5087482;28;20206;-63
2021/09/23 05:39:19;;;;;;;14.30;10.38;;;12.60;99.90;;;;;;5103714;28;20210;-66
2021/09/23 05:41:45;;;;;;;11.20;9.43;;;12.50;99.90;;;;;;5104151;28;20562;-62
2021/09/23 05:44:11;;;;;;;13.43;10.03;;;12.50;99.90;;;;;;5099574;28;20256;-62
2021/09/23 05:46:36;;;;;;;12.77;9.63;;;12.50;99.90;;;;;;5098046;28;20195;-65
2021/09/23 05:49:02;;;;;;;12.00;9.37;;;12.50;99.90;;;;;;5084374;28;20476;-62
2021/09/23 05:51:28;;;;;;;11.68;10.48;;;12.50;99.90;;;;;;5078619;28;20509;-62
2021/09/23 05:53:54;;;;;;;12.17;9.07;;;12.50;99.90;;;;;;5082316;28;20204;-62
2021/09/23 05:56:20;;;;;;;12.60;8.37;;;12.50;99.90;;;;;;5063438;28;20211;-63
2021/09/23 05:58:45;;;;;;;11.95;8.75;;;12.50;99.90;;;;;;5086774;28;20600;-64
2021/09/23 06:01:13;;;;;;;11.60;8.50;;;12.50;99.90;;;;;;5101223;28;20213;-63
2021/09/23 06:03:39;;;;;;;14.25;9.38;;;12.50;99.90;;;;;;5069747;28;20264;-62
2021/09/23 06:06:05;;;;;;;13.03;9.40;;;12.50;99.90;;;;;;5094249;28;20187;-61
2021/09/23 06:08:31;;;;;;;15.87;9.90;;;12.60;99.90;;;;;;5082509;28;20678;-63
2021/09/23 06:10:56;;;;;;;14.03;10.17;;;12.60;99.90;;;;;;5065047;28;20184;-62
2021/09/23 06:13:22;;;;;;;15.30;9.47;;;12.60;99.90;;;;;;5088831;28;20506;-62
2021/09/23 06:15:50;;;;;;;14.70;9.83;;;12.70;99.90;;;;;;5089597;28;20334;-62
2021/09/23 06:18:15;;;;;;;12.55;9.48;;;12.70;99.90;;;;;;5074853;28;20192;-62
2021/09/23 06:20:47;;;;;;;14.33;10.13;;;12.80;99.90;;;;;;5082848;28;20188;-64
2021/09/23 06:23:14;;;;;;;12.57;9.02;;;12.90;99.90;;;;;;5074121;28;20187;-63
2021/09/23 06:25:39;;;;;;;12.80;9.15;;;12.90;99.90;;;;;;5088435;28;20723;-63
2021/09/23 06:28:05;;;;;;;11.17;8.20;;;12.90;99.90;;;;;;5092226;28;20373;-64
2021/09/23 06:30:31;;;;;;;13.70;10.03;;;13.00;99.90;;;;;;5090296;28;20301;-63
2021/09/23 06:32:57;;;;;;;21.63;13.83;;;13.00;99.90;;;;;;5093534;28;20990;-63
2021/09/23 06:35:22;;;;;;;12.20;8.50;;;13.00;99.90;;;;;;5091739;28;20425;-63
2021/09/23 06:37:48;;;;;;;12.47;8.90;;;13.00;99.90;;;;;;5102285;28;20228;-63
2021/09/23 06:40:15;;;;;;;14.03;8.40;;;13.10;99.90;;;;;;5086895;28;20192;-63
2021/09/23 06:42:41;;;;;;;13.02;8.23;;;13.10;99.90;;;;;;5081067;28;20212;-63
2021/09/23 06:45:07;;;;;;;11.95;8.50;;;13.20;99.90;;;;;;5095266;28;20192;-63
2021/09/23 06:47:33;;;;;;;12.77;8.63;;;13.20;99.90;;;;;;5086878;28;20578;-62
2021/09/23 06:49:59;;;;;;;12.77;8.67;;;13.30;99.90;;;;;;5061473;28;20203;-64
2021/09/23 06:52:26;;;;;;;13.20;8.60;;;13.30;99.90;;;;;;5082885;28;20172;-63
2021/09/23 06:54:52;;;;;;;11.83;8.93;;;13.40;99.90;;;;;;5073309;28;20206;-63
2021/09/23 06:57:18;;;;;;;15.43;10.47;;;13.50;99.90;;;;;;5099468;28;20805;-63
2021/09/23 06:59:43;;;;;;;13.83;8.77;;;13.50;99.90;;;;;;5103359;28;20493;-63
2021/09/23 07:02:09;;;;;;;11.33;8.13;;;13.60;99.90;;;;;;5093330;28;20468;-63
2021/09/23 07:04:35;;;;;;;15.80;8.87;;;13.70;99.90;;;;;;5071554;28;20192;-64
2021/09/23 07:07:01;;;;;;;14.40;10.03;;;13.80;99.90;;;;;;5094598;28;20233;-64
2021/09/23 07:09:26;;;;;;;15.17;9.73;;;13.90;99.90;;;;;;5098562;28;20431;-63
2021/09/23 07:11:52;;;;;;;12.07;9.30;;;14.00;99.90;;;;;;5092420;28;20436;-63
2021/09/23 07:14:17;;;;;;;13.17;9.27;;;14.10;99.90;;;;;;5097282;28;20241;-63
2021/09/23 07:16:43;;;;;;;14.70;9.10;;;14.20;99.90;;;;;;5091426;28;20261;-63
2021/09/23 07:19:09;;;;;;;14.13;9.97;;;14.30;99.90;;;;;;5093044;28;20232;-63
2021/09/23 07:21:34;;;;;;;14.10;9.60;;;14.40;99.90;;;;;;5100012;28;20706;-63
2021/09/23 07:24:00;;;;;;;14.73;9.40;;;14.40;99.90;;;;;;5104521;28;20690;-63
2021/09/23 07:26:26;;;;;;;14.40;8.70;;;14.40;99.90;;;;;;5085051;28;20637;-63
2021/09/23 07:28:51;;;;;;;11.47;8.30;;;14.40;99.90;;;;;;5094885;28;20248;-63
2021/09/23 07:31:17;;;;;;;12.43;8.10;;;14.40;99.90;;;;;;5103655;28;20188;-63
2021/09/23 07:33:44;;;;;;;13.50;9.83;;;14.40;99.90;;;;;;5082172;28;20207;-63
2021/09/23 07:36:12;;;;;;;13.67;8.73;;;14.40;99.90;;;;;;5100275;28;20184;-63
2021/09/23 07:38:38;;;;;;;11.87;8.23;;;14.40;99.90;;;;;;5081073;28;20445;-63
2021/09/23 07:41:04;;;;;;;14.97;8.83;;;14.40;99.90;;;;;;5096171;28;21010;-64
2021/09/23 07:43:29;;;;;;;13.00;9.07;;;14.40;99.90;;;;;;5077742;28;20590;-63
2021/09/23 07:45:55;;;;;;;11.50;8.93;;;14.40;99.90;;;;;;5095163;28;20182;-65
2021/09/23 07:48:21;;;;;;;16.40;9.47;;;14.50;99.90;;;;;;5073151;28;20184;-63
2021/09/23 07:50:47;;;;;;;14.03;9.67;;;14.50;99.90;;;;;;5093632;28;20636;-63
2021/09/23 07:53:13;;;;;;;12.40;8.90;;;14.60;99.90;;;;;;5096138;28;20192;-63
2021/09/23 07:55:38;;;;;;;12.07;8.50;;;14.60;99.90;;;;;;5097436;28;20436;-62
2021/09/23 07:58:04;;;;;;;11.33;8.00;;;14.70;99.90;;;;;;5098581;28;20407;-63
2021/09/23 08:00:30;;;;;;;14.70;9.10;;;14.70;99.90;;;;;;5097495;28;20291;-62
2021/09/23 08:02:56;;;;;;;12.70;8.73;;;14.80;99.90;;;;;;5095639;28;20215;-63
2021/09/23 08:05:21;;;;;;;12.53;8.93;;;14.80;99.90;;;;;;5098783;28;20422;-62
2021/09/23 08:07:48;;;;;;;14.13;9.17;;;14.80;99.90;;;;;;5096150;28;20185;-64
2021/09/23 08:10:15;;;;;;;14.27;9.57;;;14.80;99.90;;;;;;5067170;28;20212;-62
2021/09/23 08:12:40;;;;;;;12.90;8.73;;;14.80;99.90;;;;;;5076754;28;20490;-63
2021/09/23 08:15:07;;;;;;;15.10;10.50;;;14.90;99.90;;;;;;5087045;28;20485;-63
2021/09/23 08:17:32;;;;;;;16.80;10.30;;;14.90;99.90;;;;;;5090245;28;20232;-63
2021/09/23 08:19:58;;;;;;;15.53;9.67;;;15.00;99.90;;;;;;5070661;28;20465;-63
2021/09/23 08:22:23;;;;;;;15.43;10.50;;;15.10;99.90;;;;;;5095716;28;20212;-62
2021/09/23 08:24:49;;;;;;;14.43;10.97;;;15.10;99.90;;;;;;5078180;28;20216;-62
2021/09/23 08:27:15;;;;;;;13.97;9.30;;;15.20;99.90;;;;;;5090740;28;20219;-63
2021/09/23 08:29:43;;;;;;;12.27;8.37;;;15.40;99.90;;;;;;5086063;28;20292;-63
2021/09/23 08:32:09;;;;;;;14.90;9.80;;;15.50;99.90;;;;;;5084059;28;20184;-62
2021/09/23 08:34:34;;;;;;;14.27;10.13;;;15.60;99.90;;;;;;5093724;28;20468;-62
2021/09/23 08:37:00;;;;;;;16.33;10.40;;;15.70;99.90;;;;;;5091850;28;20249;-64
2021/09/23 08:39:26;;;;;;;16.17;11.07;;;15.80;99.90;;;;;;5085355;28;20280;-62
2021/09/23 08:41:51;;;;;;;14.90;9.20;;;15.80;99.90;;;;;;5078854;28;20266;-62
2021/09/23 08:44:17;;;;;;;13.63;10.20;;;16.00;99.90;;;;;;5097021;28;20204;-63
2021/09/23 08:46:43;;;;;;;17.77;9.30;;;16.10;99.90;;;;;;5097564;28;20549;-64
2021/09/23 08:49:10;;;;;;;17.20;10.70;;;16.20;99.90;;;;;;5090588;28;20446;-64
2021/09/23 08:51:37;;;;;;;14.33;9.97;;;16.40;99.90;;;;;;5065741;28;20429;-64
2021/09/23 08:54:04;;;;;;;13.83;10.03;;;16.40;99.90;;;;;;5093192;28;20869;-64
2021/09/23 08:56:30;;;;;;;12.63;9.20;;;16.50;99.90;;;;;;5084960;28;20475;-64
2021/09/23 08:58:55;;;;;;;12.70;9.50;;;16.50;99.90;;;;;;5088602;28;20943;-65
2021/09/23 09:01:23;;;;;;;12.20;9.03;;;16.50;99.90;;;;;;5080175;28;20450;-65
2021/09/23 09:04:03;;;;;;;14.77;9.53;;;16.60;99.90;;;;;;5097549;28;20227;-64
2021/09/23 09:06:29;;;;;;;13.70;9.10;;;16.60;99.90;;;;;;5083969;28;20441;-63
2021/09/23 09:08:55;;;;;;;12.77;9.23;;;16.70;99.90;;;;;;5103156;28;20455;-64
2021/09/23 09:11:21;;;;;;;12.30;9.30;;;16.80;99.90;;;;;;5094046;28;20205;-63
2021/09/23 09:13:50;;;;;;;12.70;8.50;;;17.00;99.90;;;;;;5089415;28;20417;-63
2021/09/23 09:16:22;;;;;;;10.67;7.90;;;17.00;99.90;;;;;;5073121;28;20483;-63
2021/09/23 09:18:50;;;;;;;11.17;8.13;;;17.10;99.90;;;;;;5089565;28;20816;-63
2021/09/23 09:21:19;;;;;;;11.20;8.37;;;17.20;99.90;;;;;;5071278;28;20431;-63
2021/09/23 09:23:50;;;;;;;12.53;9.60;;;17.20;99.90;;;;;;5095188;28;20452;-63
2021/09/23 09:26:37;;;;;;;11.30;9.20;;;17.20;99.90;;;;;;5084997;28;20428;-63
2021/09/23 09:29:05;;;;;;;19.40;17.17;;;17.20;99.90;;;;;;5084114;28;20452;-64
2021/09/23 09:31:32;;;;;;;58.87;46.27;;;17.30;99.90;;;;;;5093370;28;20432;-64
2021/09/23 09:34:00;;;;;;;131.33;70.87;;;17.30;99.90;;;;;;5088363;28;20443;-63
2021/09/23 09:36:32;;;;;;;32.87;21.50;;;17.20;99.90;;;;;;5066629;28;20889;-63
2021/09/23 09:39:04;;;;;;;13.87;12.07;;;17.20;99.90;;;;;;5101123;28;20447;-63
2021/09/23 09:41:34;;;;;;;10.80;8.10;;;17.20;99.90;;;;;;5095468;28;20443;-63
2021/09/23 09:44:01;;;;;;;9.00;7.40;;;17.30;99.90;;;;;;5092288;28;20498;-64
2021/09/23 09:46:33;;;;;;;10.00;9.00;;;17.30;99.90;;;;;;5072891;28;20962;-63
2021/09/23 09:49:00;;;;;;;9.90;8.20;;;17.40;99.90;;;;;;5096673;28;20539;-63
2021/09/23 09:51:38;;;;;;;10.60;8.50;;;17.50;99.90;;;;;;5097049;28;20440;-63
2021/09/23 09:54:05;;;;;;;9.53;8.10;;;17.50;99.90;;;;;;5083725;28;20436;-63
2021/09/23 09:56:31;;;;;;;8.30;6.60;;;17.60;99.90;;;;;;5102911;28;20435;-65
2021/09/23 09:59:26;;;;;;;9.40;7.37;;;17.60;99.90;;;;;;5079368;28;20531;-63
2021/09/23 10:01:54;;;;;;;8.73;6.80;;;17.60;99.90;;;;;;5072966;28;20228;-63
2021/09/23 10:04:22;;;;;;;12.70;9.30;;;17.60;99.90;;;;;;5068575;28;20513;-63
2021/09/23 10:06:48;;;;;;;11.10;8.50;;;17.70;99.90;;;;;;5091095;28;20481;-63
2021/09/23 10:09:16;;;;;;;10.73;8.10;;;17.70;99.90;;;;;;5098563;28;20508;-65
2021/09/23 10:11:44;;;;;;;16.90;13.63;;;17.80;99.90;;;;;;5091612;28;20786;-63
2021/09/23 10:14:12;;;;;;;10.43;7.40;;;17.80;99.90;;;;;;5092681;28;20895;-65
2021/09/23 10:16:38;;;;;;;10.10;7.40;;;17.80;99.90;;;;;;5093138;28;20832;-64
2021/09/23 10:19:05;;;;;;;10.33;7.90;;;17.90;99.90;;;;;;5098466;28;20793;-64
2021/09/23 10:21:31;;;;;;;8.57;6.40;;;17.90;99.90;;;;;;5094903;28;20469;-64
2021/09/23 10:23:57;;;;;;;8.80;6.97;;;18.00;99.90;;;;;;5092212;28;20823;-64
2021/09/23 10:26:28;;;;;;;9.80;7.03;;;18.00;99.90;;;;;;5096601;28;20703;-64
2021/09/23 10:28:56;;;;;;;9.43;7.20;;;18.00;99.90;;;;;;5078789;28;20452;-65
2021/09/23 10:31:30;;;;;;;9.83;7.23;;;18.10;99.90;;;;;;5075836;28;20778;-63
2021/09/23 10:33:59;;;;;;;10.07;8.23;;;18.10;99.90;;;;;;5089997;28;20458;-64
2021/09/23 10:36:27;;;;;;;9.97;7.90;;;18.10;99.90;;;;;;5090594;28;20423;-64
2021/09/23 10:38:55;;;;;;;10.70;7.53;;;18.20;99.90;;;;;;5081828;28;20441;-65
2021/09/23 10:41:22;;;;;;;8.77;6.37;;;18.20;99.90;;;;;;5093023;28;20507;-63
2021/09/23 10:43:49;;;;;;;7.67;6.13;;;18.20;99.90;;;;;;5071404;28;20454;-63
2021/09/23 10:46:16;;;;;;;7.13;5.70;;;18.20;99.90;;;;;;5090916;28;20522;-63
2021/09/23 10:48:45;;;;;;;5.87;4.83;;;18.20;99.90;;;;;;5096637;28;20859;-63
2021/09/23 10:51:15;;;;;;;6.73;5.27;;;18.20;99.90;;;;;;5073553;28;20721;-64
2021/09/23 10:53:47;;;;;;;6.93;6.20;;;18.30;99.90;;;;;;5094964;28;20464;-63
2021/09/23 10:56:13;;;;;;;5.80;4.93;;;18.20;99.90;;;;;;5097554;28;20515;-63
2021/09/23 10:58:39;;;;;;;6.10;4.57;;;18.30;99.90;;;;;;5099620;28;20544;-63
2021/09/23 11:01:06;;;;;;;4.90;4.30;;;18.30;99.90;;;;;;5087381;28;20180;-63
2021/09/23 11:03:37;;;;;;;5.30;4.47;;;18.30;99.90;;;;;;5098434;28;20457;-64
2021/09/23 11:06:09;;;;;;;6.30;5.00;;;18.40;99.90;;;;;;5093548;28;20738;-63
2021/09/23 11:08:39;;;;;;;6.03;4.90;;;18.40;99.90;;;;;;5096357;28;20514;-63
2021/09/23 11:11:07;;;;;;;7.67;5.63;;;18.40;99.90;;;;;;5094965;28;20463;-63
2021/09/23 11:13:35;;;;;;;7.90;6.00;;;18.50;99.90;;;;;;5102892;28;20713;-63
2021/09/23 11:16:03;;;;;;;5.87;4.50;;;18.50;99.90;;;;;;5086218;28;20433;-63
2021/09/23 11:18:30;;;;;;;5.33;4.23;;;18.40;99.90;;;;;;5087034;28;20421;-63
2021/09/23 11:20:57;;;;;;;5.50;4.70;;;18.40;99.90;;;;;;5087157;28;20436;-63
2021/09/23 11:23:23;;;;;;;5.00;4.50;;;18.40;99.90;;;;;;5087772;28;20425;-62
2021/09/23 11:25:50;;;;;;;5.43;4.43;;;18.40;99.90;;;;;;5078323;28;20437;-63
2021/09/23 11:28:20;;;;;;;4.47;3.60;;;18.40;99.90;;;;;;5088365;28;20417;-63
2021/09/23 11:30:50;;;;;;;4.13;3.73;;;18.50;99.90;;;;;;5067275;28;21032;-63
2021/09/23 11:33:17;;;;;;;4.77;4.00;;;18.50;99.90;;;;;;5084119;28;20481;-63
2021/09/23 11:35:45;;;;;;;5.60;4.47;;;18.60;99.90;;;;;;5086651;28;20391;-64
2021/09/23 11:38:15;;;;;;;3.83;2.90;;;18.60;99.90;;;;;;5086377;28;20421;-64
2021/09/23 11:40:43;;;;;;;3.47;3.17;;;18.70;99.90;;;;;;5082752;28;20434;-63
2021/09/23 11:43:14;;;;;;;4.97;4.20;;;18.70;99.90;;;;;;5085401;28;20496;-64
2021/09/23 11:45:42;;;;;;;3.90;3.50;;;18.80;99.90;;;;;;5066693;28;20461;-64
2021/09/23 11:48:11;;;;;;;3.90;3.50;;;18.80;99.90;;;;;;5070852;28;20405;-64
2021/09/23 11:50:38;;;;;;;4.93;3.57;;;18.80;99.90;;;;;;5091890;28;21182;-62
2021/09/23 11:53:10;;;;;;;4.30;3.23;;;18.90;99.90;;;;;;5079179;28;20440;-63
2021/09/23 11:55:43;;;;;;;4.90;4.30;;;18.90;99.90;;;;;;5068248;28;20489;-63
2021/09/23 11:58:13;;;;;;;4.33;3.50;;;18.90;99.90;;;;;;5089498;28;20868;-64
2021/09/23 12:00:45;;;;;;;4.63;3.13;;;18.90;99.90;;;;;;5083196;28;20444;-64
2021/09/23 12:03:12;;;;;;;5.70;3.57;;;18.90;99.90;;;;;;5076936;28;20480;-62
2021/09/23 12:05:39;;;;;;;4.30;3.90;;;18.90;99.90;;;;;;5087595;28;20451;-62
2021/09/23 12:08:13;;;;;;;3.43;3.13;;;18.90;99.90;;;;;;5089646;28;20433;-64
2021/09/23 12:10:47;;;;;;;4.67;3.50;;;18.90;99.90;;;;;;5084393;28;20453;-63
2021/09/23 12:13:23;;;;;;;4.10;3.70;;;18.90;99.90;;;;;;5085157;28;20429;-62
2021/09/23 12:15:50;;;;;;;3.77;3.47;;;18.90;99.90;;;;;;5095686;28;20442;-64
2021/09/23 12:18:16;;;;;;;3.27;2.97;;;18.80;99.90;;;;;;5068945;28;20502;-62
2021/09/23 12:20:45;;;;;;;4.10;3.70;;;18.80;99.90;;;;;;5088454;28;20439;-62
2021/09/23 12:23:19;;;;;;;3.70;3.40;;;18.80;99.90;;;;;;5085658;28;20211;-63
2021/09/23 12:26:09;;;;;;;3.30;3.03;;;18.80;99.90;;;;;;5062601;28;20475;-63
2021/09/23 12:28:38;;;;;;;3.30;3.00;;;18.80;99.90;;;;;;5065975;28;20454;-63
2021/09/23 12:31:06;;;;;;;5.80;3.60;;;18.70;99.90;;;;;;5089031;28;20441;-64
2021/09/23 12:33:32;;;;;;;4.00;3.60;;;18.70;99.90;;;;;;5068713;28;20451;-62
2021/09/23 12:36:13;;;;;;;4.43;3.67;;;18.70;99.90;;;;;;5087896;28;20825;-63